Back to Top

Language: 

My Weather Underground Personal Weather Station Historical Data with Graphs...

Delerius Weather Station Historical Data
Daily Summary for January 3, 2017 Units:  Metric    English   Both
« Previous Day
Next Day »
Daily Weekly Monthly Yearly Custom
  High: Low: Average:
Temperature: 7.4 °C 2 °C 6 °C
Dew Point: 5.6 °C 0.6 °C 3.8 °C
Humidity: 92 % 81 % 86 %
Wind Speed: 38.6 km/h 0 km/h 21.1 km/h
Wind Gust: 53.1 km/h - -
Wind:- - WNW
Pressure: 1028.7 hPa 1020.5 hPa -
Precipitation: 0 mm    
Historical Graphs
 
 
Tabular Data for January 3, 2017
Time Temperature Dew Point Pressure Wind Wind Speed Wind Gust Humidity Rainfall Rate (Hourly) solar Conditions
00:00 2.2 °C 0.7 °C 1028.7 hPa WNW 6.4 km/h 6.4 km/h 90 % 0 mm 0 W/m2
00:05 2.2 °C 0.7 °C 1028.7 hPa WNW 4.8 km/h 6.4 km/h 90 % 0 mm 0 W/m2
00:15 2.2 °C 0.8 °C 1028.3 hPa NW 4.8 km/h 4.8 km/h 90 % 0 mm 0 W/m2
00:25 2.3 °C 0.8 °C 1028.3 hPa NW 3.2 km/h 4.8 km/h 90 % 0 mm 0 W/m2
00:30 2.3 °C 0.8 °C 1028.3 hPa Calm     90 % 0 mm 0 W/m2
00:35 2.2 °C 0.8 °C 1028.3 hPa Calm     90 % 0 mm 0 W/m2
00:45 2.1 °C 0.7 °C 1028 hPa Calm     90 % 0 mm 0 W/m2
00:50 2.1 °C 0.6 °C 1028.3 hPa Calm     90 % 0 mm 0 W/m2
00:55 2 °C 0.6 °C 1028 hPa Calm     90 % 0 mm 0 W/m2
01:05 2 °C 0.7 °C 1028 hPa Calm   14.5 km/h 91 % 0 mm 0 W/m2
01:10 2 °C 0.7 °C 1028 hPa Calm   14.5 km/h 91 % 0 mm 0 W/m2
01:15 2.1 °C 0.7 °C 1027.7 hPa NW 1.6 km/h 14.5 km/h 91 % 0 mm 0 W/m2
01:20 2.1 °C 0.8 °C 1027.7 hPa NW 1.6 km/h 14.5 km/h 91 % 0 mm 0 W/m2
01:30 2.5 °C 1.3 °C 1027.7 hPa WNW 8 km/h 14.5 km/h 92 % 0 mm 0 W/m2
01:35 2.8 °C 1.6 °C 1027.7 hPa WNW 8 km/h 14.5 km/h 92 % 0 mm 0 W/m2
01:40 3 °C 1.8 °C 1027.7 hPa WNW 8 km/h 8 km/h 92 % 0 mm 0 W/m2
01:45 3.2 °C 2 °C 1027.7 hPa WNW 8 km/h 14.5 km/h 92 % 0 mm 0 W/m2
01:50 3.3 °C 2.2 °C 1027.7 hPa West 8 km/h 14.5 km/h 92 % 0 mm 0 W/m2
02:00 3.5 °C 2.2 °C 1027.3 hPa WNW 8 km/h 14.5 km/h 91 % 0 mm 0 W/m2
02:05 3.6 °C 2.2 °C 1027.3 hPa WNW 6.4 km/h 14.5 km/h 91 % 0 mm 0 W/m2
02:15 3.5 °C 2.2 °C 1027 hPa Calm   14.5 km/h 91 % 0 mm 0 W/m2
02:20 3.4 °C 2.1 °C 1027 hPa WNW 1.6 km/h 14.5 km/h 91 % 0 mm 0 W/m2
02:25 3.6 °C 2.2 °C 1027 hPa WNW 4.8 km/h 14.5 km/h 91 % 0 mm 0 W/m2
02:30 3.7 °C 2.4 °C 1027 hPa NW 8 km/h 14.5 km/h 91 % 0 mm 0 W/m2
02:35 3.9 °C 2.6 °C 1027 hPa West 9.7 km/h 20.9 km/h 91 % 0 mm 0 W/m2
02:40 4.1 °C 2.7 °C 1026.6 hPa WNW 11.3 km/h 11.3 km/h 91 % 0 mm 0 W/m2
02:50 4.2 °C 2.7 °C 1026.6 hPa WNW 14.5 km/h 14.5 km/h 90 % 0 mm 0 W/m2
02:55 4.3 °C 2.8 °C 1026.6 hPa West 12.9 km/h 14.5 km/h 90 % 0 mm 0 W/m2
03:00 4.3 °C 2.7 °C 1026.3 hPa WNW 14.5 km/h 16.1 km/h 89 % 0 mm 0 W/m2
03:05 4.4 °C 2.8 °C 1026.3 hPa WNW 16.1 km/h 20.9 km/h 89 % 0 mm 0 W/m2
03:15 4.5 °C 2.8 °C 1026.3 hPa West 19.3 km/h 19.3 km/h 89 % 0 mm 0 W/m2
03:20 4.5 °C 2.8 °C 1026.3 hPa West 19.3 km/h 19.3 km/h 89 % 0 mm 0 W/m2
03:25 4.6 °C 2.9 °C 1026 hPa West 17.7 km/h 19.3 km/h 89 % 0 mm 0 W/m2
03:30 4.7 °C 3 °C 1026 hPa West 17.7 km/h 22.5 km/h 89 % 0 mm 0 W/m2
03:35 4.7 °C 2.9 °C 1026 hPa West 19.3 km/h 22.5 km/h 88 % 0 mm 0 W/m2
03:40 4.8 °C 3 °C 1026 hPa West 19.3 km/h 19.3 km/h 88 % 0 mm 0 W/m2
03:50 4.8 °C 3 °C 1025.6 hPa WSW 20.9 km/h 25.7 km/h 88 % 0 mm 0 W/m2
03:55 4.8 °C 3 °C 1025.6 hPa WNW 22.5 km/h 25.7 km/h 88 % 0 mm 0 W/m2
04:00 4.8 °C 3 °C 1025.6 hPa West 22.5 km/h 22.5 km/h 88 % 0 mm 0 W/m2
04:05 4.9 °C 3.1 °C 1025.6 hPa West 22.5 km/h 24.1 km/h 88 % 0 mm 0 W/m2
04:10 5 °C 3.2 °C 1025.3 hPa West 22.5 km/h 22.5 km/h 88 % 0 mm 0 W/m2
04:20 5.1 °C 3.3 °C 1025.3 hPa NW 19.3 km/h 19.3 km/h 88 % 0 mm 0 W/m2
04:25 5.2 °C 3.3 °C 1025.3 hPa WNW 19.3 km/h 24.1 km/h 88 % 0 mm 0 W/m2
04:30 5.2 °C 3.4 °C 1025.3 hPa WNW 19.3 km/h 19.3 km/h 88 % 0 mm 0 W/m2
04:35 5.2 °C 3.2 °C 1025.3 hPa NW 19.3 km/h 19.3 km/h 87 % 0 mm 0 W/m2
04:40 5.2 °C 3.2 °C 1024.9 hPa WNW 20.9 km/h 20.9 km/h 87 % 0 mm 0 W/m2
04:45 5.2 °C 3.2 °C 1024.9 hPa NW 22.5 km/h 24.1 km/h 87 % 0 mm 0 W/m2
04:55 5.1 °C 3.1 °C 1024.9 hPa WNW 22.5 km/h 22.5 km/h 87 % 0 mm 0 W/m2
05:00 5.1 °C 3.1 °C 1024.9 hPa WNW 24.1 km/h 24.1 km/h 87 % 0 mm 0 W/m2
05:05 5.1 °C 3.1 °C 1024.9 hPa NW 19.3 km/h 24.1 km/h 87 % 0 mm 0 W/m2
05:10 5 °C 3 °C 1024.9 hPa WNW 16.1 km/h 17.7 km/h 87 % 0 mm 0 W/m2
05:15 5.1 °C 3.1 °C 1024.9 hPa WNW 19.3 km/h 19.3 km/h 87 % 0 mm 0 W/m2
05:25 5.2 °C 3.1 °C 1024.6 hPa WNW 24.1 km/h 24.1 km/h 86 % 0 mm 0 W/m2
05:30 5.2 °C 3.1 °C 1024.6 hPa NW 22.5 km/h 33.8 km/h 86 % 0 mm 0 W/m2
05:40 5.3 °C 3.1 °C 1024.6 hPa NW 22.5 km/h 22.5 km/h 86 % 0 mm 0 W/m2
05:45 5.3 °C 3.1 °C 1024.9 hPa WNW 22.5 km/h 24.1 km/h 86 % 0 mm 0 W/m2
05:50 5.3 °C 3.2 °C 1024.9 hPa WNW 22.5 km/h 30.6 km/h 86 % 0 mm 0 W/m2
06:00 5.3 °C 3 °C 1024.6 hPa WNW 19.3 km/h 19.3 km/h 85 % 0 mm 0 W/m2
06:05 5.3 °C 2.9 °C 1024.9 hPa NW 19.3 km/h 29 km/h 85 % 0 mm 0 W/m2
06:10 5.3 °C 3 °C 1024.9 hPa NW 20.9 km/h 20.9 km/h 85 % 0 mm 0 W/m2
06:15 5.3 °C 3 °C 1024.9 hPa NW 20.9 km/h 30.6 km/h 85 % 0 mm 0 W/m2
06:25 5.4 °C 3.1 °C 1024.9 hPa WNW 19.3 km/h 20.9 km/h 85 % 0 mm 0 W/m2
06:35 5.4 °C 3.1 °C 1025.3 hPa WNW 16.1 km/h 16.1 km/h 85 % 0 mm 0 W/m2
06:40 5.4 °C 3.3 °C 1025.3 hPa NNW 16.1 km/h 22.5 km/h 86 % 0 mm 0 W/m2
06:45 5.5 °C 3.2 °C 1025.3 hPa WNW 14.5 km/h 22.5 km/h 85 % 0 mm 0 W/m2
06:50 5.6 °C 3.3 °C 1025.3 hPa WNW 14.5 km/h 20.9 km/h 85 % 0 mm 0 W/m2
06:55 5.7 °C 3.3 °C 1025.3 hPa West 16.1 km/h 20.9 km/h 85 % 0 mm 0 W/m2
07:05 5.7 °C 3.6 °C 1025.3 hPa WSW 16.1 km/h 17.7 km/h 86 % 0 mm 0 W/m2
07:10 5.8 °C 3.6 °C 1025.3 hPa West 16.1 km/h 16.1 km/h 86 % 0 mm 0 W/m2
07:15 5.8 °C 3.7 °C 1024.9 hPa NW 19.3 km/h 19.3 km/h 86 % 0 mm 0 W/m2
07:20 5.8 °C 3.7 °C 1024.9 hPa WNW 19.3 km/h 32.2 km/h 86 % 0 mm 0 W/m2
07:25 5.8 °C 3.6 °C 1024.9 hPa NW 19.3 km/h 32.2 km/h 86 % 0 mm 0 W/m2
07:30 5.8 °C 3.6 °C 1024.9 hPa WNW 19.3 km/h 20.9 km/h 86 % 0 mm 0 W/m2
07:40 5.8 °C 3.5 °C 1024.9 hPa WNW 17.7 km/h 20.9 km/h 85 % 0 mm 0 W/m2
07:45 5.8 °C 3.5 °C 1024.9 hPa WNW 17.7 km/h 20.9 km/h 85 % 0 mm 0 W/m2
07:50 5.8 °C 3.5 °C 1024.9 hPa WNW 17.7 km/h 17.7 km/h 85 % 0 mm 0 W/m2
07:55 5.8 °C 3.4 °C 1024.9 hPa WNW 17.7 km/h 22.5 km/h 85 % 0 mm 0 W/m2
08:00 5.8 °C 3.4 °C 1024.9 hPa NW 17.7 km/h 17.7 km/h 85 % 0 mm 0 W/m2
08:10 5.7 °C 3.3 °C 1024.9 hPa WNW 14.5 km/h 17.7 km/h 85 % 0 mm 0 W/m2
08:15 5.7 °C 3.6 °C 1024.9 hPa WNW 16.1 km/h 17.7 km/h 86 % 0 mm 0 W/m2
08:20 5.7 °C 3.6 °C 1024.9 hPa WNW 14.5 km/h 14.5 km/h 86 % 0 mm 0 W/m2
08:25 5.7 °C 3.6 °C 1024.9 hPa West 14.5 km/h 24.1 km/h 86 % 0 mm 0 W/m2
08:30 5.8 °C 3.4 °C 1024.6 hPa West 16.1 km/h 16.1 km/h 85 % 0 mm 5 W/m2
08:35 5.8 °C 3.5 °C 1024.6 hPa WNW 16.1 km/h 16.1 km/h 85 % 0 mm 5 W/m2
08:40 5.8 °C 3.5 °C 1024.9 hPa NW 14.5 km/h 29 km/h 85 % 0 mm 7 W/m2
08:45 5.9 °C 3.6 °C 1024.9 hPa WNW 14.5 km/h 29 km/h 85 % 0 mm 7 W/m2
08:55 5.9 °C 3.6 °C 1024.9 hPa West 11.3 km/h 14.5 km/h 85 % 0 mm 9 W/m2
09:00 6 °C 3.7 °C 1024.9 hPa West 12.9 km/h 16.1 km/h 85 % 0 mm 11 W/m2
09:05 6.1 °C 3.7 °C 1024.6 hPa WNW 16.1 km/h 16.1 km/h 85 % 0 mm 14 W/m2
09:10 6.1 °C 3.7 °C 1024.6 hPa WNW 17.7 km/h 17.7 km/h 85 % 0 mm 16 W/m2
09:20 6.1 °C 3.7 °C 1024.6 hPa West 14.5 km/h 20.9 km/h 85 % 0 mm 23 W/m2
09:25 6.1 °C 3.8 °C 1024.6 hPa West 17.7 km/h 20.9 km/h 85 % 0 mm 23 W/m2
09:30 6.1 °C 3.8 °C 1024.6 hPa WNW 17.7 km/h 20.9 km/h 85 % 0 mm 26 W/m2
09:35 6.2 °C 3.8 °C 1024.3 hPa WNW 16.1 km/h 20.9 km/h 85 % 0 mm 39 W/m2
09:40 6.2 °C 4 °C 1024.3 hPa WNW 16.1 km/h 16.1 km/h 86 % 0 mm 46 W/m2
09:50 6.2 °C 3.9 °C 1024.3 hPa West 19.3 km/h 19.3 km/h 85 % 0 mm 58 W/m2
09:55 6.2 °C 3.9 °C 1024.3 hPa NW 19.3 km/h 22.5 km/h 85 % 0 mm 58 W/m2
10:00 6.3 °C 3.9 °C 1024.3 hPa WNW 22.5 km/h 22.5 km/h 85 % 0 mm 67 W/m2
10:05 6.3 °C 4 °C 1024.6 hPa West 24.1 km/h 24.1 km/h 85 % 0 mm 79 W/m2
10:10 6.3 °C 4 °C 1024.6 hPa West 25.7 km/h 32.2 km/h 85 % 0 mm 67 W/m2
10:15 6.4 °C 3.9 °C 1024.3 hPa WNW 25.7 km/h 32.2 km/h 84 % 0 mm 70 W/m2
10:25 6.4 °C 3.9 °C 1024.6 hPa West 20.9 km/h 22.5 km/h 84 % 0 mm 53 W/m2
10:30 6.5 °C 4 °C 1024.3 hPa West 20.9 km/h 25.7 km/h 84 % 0 mm 62 W/m2
10:35 6.5 °C 4 °C 1024.3 hPa West 22.5 km/h 25.7 km/h 84 % 0 mm 65 W/m2
10:40 6.5 °C 4 °C 1024.3 hPa West 24.1 km/h 24.1 km/h 84 % 0 mm 56 W/m2
10:45 6.5 °C 4 °C 1024.3 hPa West 22.5 km/h 24.1 km/h 84 % 0 mm 62 W/m2
10:55 6.6 °C 4.2 °C 1024.3 hPa WSW 17.7 km/h 20.9 km/h 85 % 0 mm 79 W/m2
11:00 6.6 °C 4.2 °C 1024.3 hPa West 19.3 km/h 19.3 km/h 85 % 0 mm 95 W/m2
11:05 6.6 °C 4.3 °C 1024.3 hPa West 22.5 km/h 22.5 km/h 85 % 0 mm 95 W/m2
11:10 6.7 °C 4.3 °C 1023.9 hPa West 20.9 km/h 25.7 km/h 85 % 0 mm 83 W/m2
11:15 6.7 °C 4.4 °C 1023.9 hPa WSW 20.9 km/h 25.7 km/h 85 % 0 mm 72 W/m2
11:20 6.7 °C 4.4 °C 1023.9 hPa NW 20.9 km/h 20.9 km/h 85 % 0 mm 63 W/m2
11:30 6.8 °C 4.4 °C 1023.9 hPa NW 17.7 km/h 17.7 km/h 85 % 0 mm 74 W/m2
11:35 6.8 °C 4.4 °C 1023.6 hPa WNW 17.7 km/h 24.1 km/h 85 % 0 mm 84 W/m2
11:40 6.8 °C 4.4 °C 1023.6 hPa WSW 22.5 km/h 33.8 km/h 85 % 0 mm 83 W/m2
11:45 6.8 °C 4.4 °C 1023.2 hPa NW 24.1 km/h 33.8 km/h 85 % 0 mm 63 W/m2
11:50 6.8 °C 4.4 °C 1023.2 hPa WNW 29 km/h 29 km/h 85 % 0 mm 74 W/m2
12:00 6.7 °C 4.4 °C 1023.2 hPa WNW 29 km/h 32.2 km/h 85 % 0 mm 49 W/m2
12:05 6.7 °C 4.4 °C 1023.2 hPa West 25.7 km/h 32.2 km/h 85 % 0 mm 42 W/m2
12:10 6.7 °C 4.3 °C 1022.9 hPa NW 19.3 km/h 19.3 km/h 85 % 0 mm 53 W/m2
12:15 6.7 °C 4.3 °C 1022.6 hPa WNW 22.5 km/h 22.5 km/h 85 % 0 mm 74 W/m2
12:20 6.7 °C 4.4 °C 1022.6 hPa NNW 27.4 km/h 27.4 km/h 85 % 0 mm 107 W/m2
12:25 6.8 °C 4.4 °C 1022.6 hPa West 30.6 km/h 30.6 km/h 85 % 0 mm 160 W/m2
12:35 6.9 °C 4.4 °C 1022.6 hPa NW 38.6 km/h 38.6 km/h 84 % 0 mm 125 W/m2
12:40 6.9 °C 4.4 °C 1022.6 hPa NW 38.6 km/h 38.6 km/h 84 % 0 mm 114 W/m2
12:45 6.9 °C 4.4 °C 1022.6 hPa West 38.6 km/h 38.6 km/h 84 % 0 mm 65 W/m2
12:50 6.8 °C 4.4 °C 1022.6 hPa WNW 38.6 km/h 38.6 km/h 85 % 0 mm 63 W/m2
12:55 6.7 °C 4.6 °C 1022.6 hPa WNW 33.8 km/h 43.5 km/h 86 % 0 mm 90 W/m2
13:05 6.8 °C 4.6 °C 1022.2 hPa NW 30.6 km/h 32.2 km/h 86 % 0 mm 104 W/m2
13:10 6.8 °C 4.7 °C 1022.2 hPa NW 32.2 km/h 32.2 km/h 86 % 0 mm 98 W/m2
13:15 6.9 °C 4.6 °C 1022.2 hPa WNW 30.6 km/h 40.2 km/h 85 % 0 mm 118 W/m2
13:20 6.9 °C 4.6 °C 1022.2 hPa WNW 33.8 km/h 38.6 km/h 85 % 0 mm 91 W/m2
13:25 7 °C 4.7 °C 1021.9 hPa WNW 32.2 km/h 38.6 km/h 85 % 0 mm 76 W/m2
13:30 7 °C 4.7 °C 1021.9 hPa NW 32.2 km/h 32.2 km/h 85 % 0 mm 58 W/m2
13:40 6.9 °C 4.6 °C 1021.9 hPa West 29 km/h 29 km/h 85 % 0 mm 42 W/m2
13:45 6.9 °C 4.6 °C 1022.2 hPa WNW 24.1 km/h 29 km/h 85 % 0 mm 33 W/m2
13:50 6.9 °C 4.6 °C 1022.2 hPa NW 25.7 km/h 37 km/h 85 % 0 mm 32 W/m2
13:55 6.9 °C 4.6 °C 1022.2 hPa West 29 km/h 37 km/h 85 % 0 mm 37 W/m2
14:00 6.9 °C 4.6 °C 1022.2 hPa NW 27.4 km/h 33.8 km/h 85 % 0 mm 35 W/m2
14:10 6.9 °C 4.4 °C 1022.2 hPa NW 27.4 km/h 27.4 km/h 84 % 0 mm 33 W/m2
14:15 6.9 °C 4.6 °C 1022.2 hPa NW 24.1 km/h 27.4 km/h 85 % 0 mm 30 W/m2
14:20 6.8 °C 4.5 °C 1022.2 hPa NW 22.5 km/h 37 km/h 85 % 0 mm 42 W/m2
14:25 6.8 °C 4.5 °C 1022.2 hPa NW 24.1 km/h 37 km/h 85 % 0 mm 37 W/m2
14:30 6.8 °C 4.5 °C 1022.2 hPa West 24.1 km/h 25.7 km/h 85 % 0 mm 33 W/m2
14:40 6.8 °C 4.6 °C 1022.6 hPa WNW 20.9 km/h 20.9 km/h 86 % 0 mm 28 W/m2
14:45 6.8 °C 4.6 °C 1022.6 hPa West 19.3 km/h 20.9 km/h 86 % 0 mm 26 W/m2
14:50 6.8 °C 4.6 °C 1022.6 hPa NW 20.9 km/h 20.9 km/h 86 % 0 mm 30 W/m2
14:55 6.8 °C 4.6 °C 1022.6 hPa WNW 22.5 km/h 25.7 km/h 86 % 0 mm 26 W/m2
15:00 6.8 °C 4.6 °C 1022.6 hPa WNW 22.5 km/h 22.5 km/h 86 % 0 mm 21 W/m2
15:05 6.8 °C 4.6 °C 1022.6 hPa West 20.9 km/h 22.5 km/h 86 % 0 mm 16 W/m2
15:10 6.8 °C 4.6 °C 1022.6 hPa NW 19.3 km/h 19.3 km/h 86 % 0 mm 19 W/m2
15:20 6.7 °C 4.6 °C 1022.6 hPa NW 17.7 km/h 20.9 km/h 86 % 0 mm 12 W/m2
15:25 6.7 °C 4.6 °C 1022.6 hPa NW 22.5 km/h 22.5 km/h 86 % 0 mm 14 W/m2
15:30 6.7 °C 4.6 °C 1022.6 hPa NW 24.1 km/h 29 km/h 86 % 0 mm 11 W/m2
15:35 6.7 °C 4.6 °C 1022.6 hPa WNW 25.7 km/h 38.6 km/h 86 % 0 mm 11 W/m2
15:40 6.7 °C 4.5 °C 1022.6 hPa WNW 25.7 km/h 25.7 km/h 86 % 0 mm 7 W/m2
15:50 6.6 °C 4.6 °C 1021.9 hPa West 24.1 km/h 24.1 km/h 87 % 0 mm 9 W/m2
15:55 6.6 °C 4.4 °C 1021.9 hPa WNW 27.4 km/h 38.6 km/h 86 % 0 mm 7 W/m2
16:00 6.6 °C 4.4 °C 1021.9 hPa West 29 km/h 29 km/h 86 % 0 mm 0 W/m2
16:05 6.6 °C 4.6 °C 1021.9 hPa WNW 25.7 km/h 32.2 km/h 87 % 0 mm 0 W/m2
16:10 6.6 °C 4.4 °C 1021.9 hPa West 27.4 km/h 27.4 km/h 86 % 0 mm 0 W/m2
16:15 6.6 °C 4.6 °C 1021.9 hPa WNW 29 km/h 35.4 km/h 87 % 0 mm 0 W/m2
16:25 6.6 °C 4.6 °C 1021.9 hPa NW 25.7 km/h 32.2 km/h 87 % 0 mm 0 W/m2
16:30 6.6 °C 4.6 °C 1021.9 hPa NW 27.4 km/h 27.4 km/h 87 % 0 mm 0 W/m2
16:35 6.5 °C 4.5 °C 1021.9 hPa WNW 25.7 km/h 40.2 km/h 87 % 0 mm 0 W/m2
16:40 6.6 °C 4.4 °C 1021.9 hPa NW 24.1 km/h 24.1 km/h 86 % 0 mm 0 W/m2
16:45 6.5 °C 4.3 °C 1021.9 hPa WNW 25.7 km/h 41.8 km/h 86 % 0 mm 0 W/m2
16:55 6.6 °C 4.3 °C 1021.9 hPa WNW 27.4 km/h 40.2 km/h 85 % 0 mm 0 W/m2
17:00 6.6 °C 4.3 °C 1021.9 hPa WNW 29 km/h 37 km/h 85 % 0 mm 0 W/m2
17:05 6.7 °C 4.3 °C 1022.2 hPa WNW 29 km/h 37 km/h 85 % 0 mm 0 W/m2
17:10 6.7 °C 4.3 °C 1021.9 hPa WNW 24.1 km/h 24.1 km/h 85 % 0 mm 0 W/m2
17:15 6.7 °C 4.4 °C 1021.9 hPa WNW 25.7 km/h 32.2 km/h 85 % 0 mm 0 W/m2
17:25 6.7 °C 4.2 °C 1021.9 hPa NW 27.4 km/h 30.6 km/h 84 % 0 mm 0 W/m2
17:30 6.7 °C 4.1 °C 1021.9 hPa WNW 25.7 km/h 25.7 km/h 83 % 0 mm 0 W/m2
17:35 6.7 °C 4.1 °C 1021.6 hPa West 27.4 km/h 27.4 km/h 83 % 0 mm 0 W/m2
17:45 6.8 °C 4 °C 1020.9 hPa West 33.8 km/h 53.1 km/h 82 % 0 mm 0 W/m2
17:50 6.8 °C 4 °C 1020.5 hPa West 33.8 km/h 33.8 km/h 82 % 0 mm 0 W/m2
17:55 6.8 °C 4 °C 1020.5 hPa West 33.8 km/h 33.8 km/h 82 % 0 mm 0 W/m2
18:00 6.9 °C 4 °C 1020.9 hPa WNW 35.4 km/h 38.6 km/h 82 % 0 mm 0 W/m2
18:10 6.8 °C 4 °C 1020.9 hPa WNW 29 km/h 30.6 km/h 82 % 0 mm 0 W/m2
18:15 6.8 °C 3.9 °C 1021.2 hPa WNW 25.7 km/h 30.6 km/h 82 % 0 mm 0 W/m2
18:20 6.8 °C 4 °C 1021.2 hPa WNW 25.7 km/h 25.7 km/h 82 % 0 mm 0 W/m2
18:25 6.8 °C 3.7 °C 1021.6 hPa NW 25.7 km/h 40.2 km/h 81 % 0 mm 0 W/m2
18:35 6.8 °C 3.8 °C 1021.2 hPa WNW 24.1 km/h 35.4 km/h 81 % 0 mm 0 W/m2
18:40 6.8 °C 4 °C 1021.2 hPa WNW 24.1 km/h 32.2 km/h 82 % 0 mm 0 W/m2
18:45 6.8 °C 4 °C 1021.2 hPa NW 24.1 km/h 32.2 km/h 82 % 0 mm 0 W/m2
18:50 6.8 °C 4 °C 1021.2 hPa NW 24.1 km/h 24.1 km/h 82 % 0 mm 0 W/m2
18:55 6.8 °C 4 °C 1021.2 hPa NW 24.1 km/h 24.1 km/h 82 % 0 mm 0 W/m2
19:00 6.9 °C 4 °C 1020.9 hPa WNW 24.1 km/h 25.7 km/h 82 % 0 mm 0 W/m2
19:10 6.9 °C 4.1 °C 1020.9 hPa WNW 27.4 km/h 27.4 km/h 82 % 0 mm 0 W/m2
19:15 7 °C 4.1 °C 1021.2 hPa West 27.4 km/h 40.2 km/h 82 % 0 mm 0 W/m2
19:20 7.1 °C 4.2 °C 1021.2 hPa WNW 27.4 km/h 27.4 km/h 82 % 0 mm 0 W/m2
19:25 7.1 °C 4.2 °C 1021.2 hPa WNW 25.7 km/h 27.4 km/h 82 % 0 mm 0 W/m2
19:30 7.1 °C 4.4 °C 1021.2 hPa West 22.5 km/h 22.5 km/h 83 % 0 mm 0 W/m2
19:40 7.1 °C 4.4 °C 1020.9 hPa NW 25.7 km/h 25.7 km/h 83 % 0 mm 0 W/m2
19:45 7.2 °C 4.4 °C 1020.9 hPa WNW 25.7 km/h 30.6 km/h 83 % 0 mm 0 W/m2
19:50 7.2 °C 4.4 °C 1020.9 hPa West 25.7 km/h 25.7 km/h 83 % 0 mm 0 W/m2
19:55 7.2 °C 4.5 °C 1020.9 hPa NW 25.7 km/h 33.8 km/h 83 % 0 mm 0 W/m2
20:00 7.2 °C 4.5 °C 1020.9 hPa WNW 25.7 km/h 33.8 km/h 83 % 0 mm 0 W/m2
20:05 7.2 °C 4.5 °C 1021.2 hPa WNW 27.4 km/h 33.8 km/h 83 % 0 mm 0 W/m2
20:15 7.2 °C 4.7 °C 1021.2 hPa WNW 17.7 km/h 24.1 km/h 84 % 0 mm 0 W/m2
20:20 7.2 °C 4.7 °C 1021.2 hPa WNW 20.9 km/h 33.8 km/h 84 % 0 mm 0 W/m2
20:25 7.2 °C 4.7 °C 1021.2 hPa WNW 24.1 km/h 33.8 km/h 84 % 0 mm 0 W/m2
20:30 7.2 °C 4.7 °C 1021.2 hPa NW 24.1 km/h 24.1 km/h 84 % 0 mm 0 W/m2
20:40 7.3 °C 4.8 °C 1021.2 hPa NNW 25.7 km/h 25.7 km/h 84 % 0 mm 0 W/m2
20:45 7.3 °C 4.8 °C 1020.9 hPa West 29 km/h 41.8 km/h 84 % 0 mm 0 W/m2
20:50 7.3 °C 4.8 °C 1020.9 hPa WNW 30.6 km/h 30.6 km/h 84 % 0 mm 0 W/m2
20:55 7.2 °C 4.9 °C 1020.9 hPa WNW 29 km/h 30.6 km/h 85 % 0 mm 0 W/m2
21:00 7.2 °C 4.9 °C 1021.2 hPa WNW 25.7 km/h 35.4 km/h 85 % 0 mm 0 W/m2
21:05 7.2 °C 4.9 °C 1021.2 hPa NW 27.4 km/h 35.4 km/h 85 % 0 mm 0 W/m2
21:15 7.3 °C 4.9 °C 1021.2 hPa West 29 km/h 35.4 km/h 85 % 0 mm 0 W/m2
21:20 7.2 °C 4.9 °C 1020.9 hPa NW 29 km/h 33.8 km/h 85 % 0 mm 0 W/m2
21:25 7.2 °C 4.9 °C 1020.9 hPa WNW 27.4 km/h 37 km/h 85 % 0 mm 0 W/m2
21:30 7.2 °C 4.9 °C 1020.9 hPa WNW 27.4 km/h 27.4 km/h 85 % 0 mm 0 W/m2
21:35 7.2 °C 4.9 °C 1021.2 hPa WNW 29 km/h 29 km/h 85 % 0 mm 0 W/m2
21:40 7.3 °C 5.1 °C 1021.2 hPa WNW 29 km/h 29 km/h 86 % 0 mm 0 W/m2
21:50 7.3 °C 5.1 °C 1021.6 hPa WNW 24.1 km/h 24.1 km/h 86 % 0 mm 0 W/m2
21:55 7.3 °C 5.1 °C 1021.6 hPa NW 24.1 km/h 38.6 km/h 86 % 0 mm 0 W/m2
22:00 7.3 °C 5.2 °C 1021.2 hPa West 24.1 km/h 32.2 km/h 86 % 0 mm 0 W/m2
22:05 7.3 °C 5.2 °C 1021.6 hPa NW 24.1 km/h 32.2 km/h 86 % 0 mm 0 W/m2
22:10 7.3 °C 5.2 °C 1021.2 hPa NW 24.1 km/h 24.1 km/h 86 % 0 mm 0 W/m2
22:15 7.3 °C 5.2 °C 1021.2 hPa NW 22.5 km/h 32.2 km/h 86 % 0 mm 0 W/m2
22:25 7.3 °C 5.2 °C 1021.2 hPa WNW 24.1 km/h 24.1 km/h 86 % 0 mm 0 W/m2
22:30 7.4 °C 5.2 °C 1021.2 hPa West 27.4 km/h 29 km/h 86 % 0 mm 0 W/m2
22:35 7.4 °C 5.2 °C 1021.2 hPa WNW 25.7 km/h 30.6 km/h 86 % 0 mm 0 W/m2
22:40 7.3 °C 5.3 °C 1021.2 hPa WNW 22.5 km/h 22.5 km/h 87 % 0 mm 0 W/m2
22:45 7.3 °C 5.3 °C 1021.2 hPa NW 24.1 km/h 24.1 km/h 87 % 0 mm 0 W/m2
22:50 7.3 °C 5.3 °C 1021.2 hPa WNW 24.1 km/h 24.1 km/h 87 % 0 mm 0 W/m2
22:55 7.3 °C 5.3 °C 1021.2 hPa WNW 25.7 km/h 25.7 km/h 87 % 0 mm 0 W/m2
23:05 7.3 °C 5.3 °C 1021.6 hPa WNW 22.5 km/h 24.1 km/h 87 % 0 mm 0 W/m2
23:10 7.3 °C 5.3 °C 1021.6 hPa WNW 20.9 km/h 20.9 km/h 87 % 0 mm 0 W/m2
23:15 7.3 °C 5.3 °C 1021.6 hPa WNW 19.3 km/h 25.7 km/h 87 % 0 mm 0 W/m2
23:20 7.3 °C 5.3 °C 1021.6 hPa NW 22.5 km/h 25.7 km/h 87 % 0 mm 0 W/m2
23:25 7.3 °C 5.3 °C 1021.6 hPa WNW 24.1 km/h 25.7 km/h 87 % 0 mm 0 W/m2
23:35 7.3 °C 5.5 °C 1021.6 hPa WNW 24.1 km/h 32.2 km/h 88 % 0 mm 0 W/m2
23:40 7.4 °C 5.6 °C 1021.6 hPa WNW 25.7 km/h 32.2 km/h 88 % 0 mm 0 W/m2
23:45 7.4 °C 5.6 °C 1021.2 hPa WNW 24.1 km/h 32.2 km/h 88 % 0 mm 0 W/m2
23:50 7.4 °C 5.6 °C 1021.2 hPa WNW 22.5 km/h 22.5 km/h 88 % 0 mm 0 W/m2
23:55 7.4 °C 5.6 °C 1021.6 hPa WNW 22.5 km/h 22.5 km/h 88 % 0 mm 0 W/m2
Delerius-Weather
Compliments of Weather Underground - 2 mb

Data updates at regular intervals.